sensor_id;sensor_type;location;lat;lon;timestamp;temperature;humidity
46378;DHT22;32083;47.360;9.650;2022-11-18T05:01:01;8.80;99.90
46378;DHT22;32083;47.360;9.650;2022-11-18T05:03:27;8.70;99.90
46378;DHT22;32083;47.360;9.650;2022-11-18T05:05:53;8.70;99.90
46378;DHT22;32083;47.360;9.650;2022-11-18T05:08:19;8.60;99.90
46378;DHT22;32083;47.360;9.650;2022-11-18T05:10:44;8.60;99.90
46378;DHT22;32083;47.360;9.650;2022-11-18T05:13:12;8.60;99.90
46378;DHT22;32083;47.360;9.650;2022-11-18T05:15:37;8.60;99.90
46378;DHT22;32083;47.360;9.650;2022-11-18T05:18:03;8.60;99.90
46378;DHT22;32083;47.360;9.650;2022-11-18T05:20:29;8.70;99.90
46378;DHT22;32083;47.360;9.650;2022-11-18T05:22:55;8.70;99.90
46378;DHT22;32083;47.360;9.650;2022-11-18T05:25:21;8.70;99.90
46378;DHT22;32083;47.360;9.650;2022-11-18T05:27:47;8.80;99.90
46378;DHT22;32083;47.360;9.650;2022-11-18T05:30:13;8.90;99.90
46378;DHT22;32083;47.360;9.650;2022-11-18T05:32:39;8.90;99.90
46378;DHT22;32083;47.360;9.650;2022-11-18T05:35:05;9.00;99.90
46378;DHT22;32083;47.360;9.650;2022-11-18T05:37:31;9.00;99.90
46378;DHT22;32083;47.360;9.650;2022-11-18T05:39:58;9.00;99.90
46378;DHT22;32083;47.360;9.650;2022-11-18T05:42:24;9.00;99.90
46378;DHT22;32083;47.360;9.650;2022-11-18T05:45:08;9.00;99.90
46378;DHT22;32083;47.360;9.650;2022-11-18T05:47:34;9.00;99.90
46378;DHT22;32083;47.360;9.650;2022-11-18T05:50:20;8.90;99.90
46378;DHT22;32083;47.360;9.650;2022-11-18T05:52:46;8.90;99.90
46378;DHT22;32083;47.360;9.650;2022-11-18T05:55:13;9.00;99.90
46378;DHT22;32083;47.360;9.650;2022-11-18T05:57:40;8.90;99.90
46378;DHT22;32083;47.360;9.650;2022-11-18T06:00:06;8.90;99.90
46378;DHT22;32083;47.360;9.650;2022-11-18T06:02:32;8.90;99.90
46378;DHT22;32083;47.360;9.650;2022-11-18T06:05:00;8.80;99.90
46378;DHT22;32083;47.360;9.650;2022-11-18T06:07:32;8.80;99.90
46378;DHT22;32083;47.360;9.650;2022-11-18T06:09:59;8.80;99.90
46378;DHT22;32083;47.360;9.650;2022-11-18T06:12:30;8.80;99.90
46378;DHT22;32083;47.360;9.650;2022-11-18T06:15:05;8.90;99.90
46378;DHT22;32083;47.360;9.650;2022-11-18T06:17:46;8.80;99.90
46378;DHT22;32083;47.360;9.650;2022-11-18T06:20:16;8.80;99.90
46378;DHT22;32083;47.360;9.650;2022-11-18T06:22:42;8.90;99.90
46378;DHT22;32083;47.360;9.650;2022-11-18T06:25:08;8.90;99.90
46378;DHT22;32083;47.360;9.650;2022-11-18T06:27:34;8.90;99.90
46378;DHT22;32083;47.360;9.650;2022-11-18T06:30:00;8.90;99.90
46378;DHT22;32083;47.360;9.650;2022-11-18T06:32:26;8.80;99.90
46378;DHT22;32083;47.360;9.650;2022-11-18T06:34:52;8.70;99.90
46378;DHT22;32083;47.360;9.650;2022-11-18T06:37:18;8.70;99.90
46378;DHT22;32083;47.360;9.650;2022-11-18T06:39:47;8.60;99.90
46378;DHT22;32083;47.360;9.650;2022-11-18T06:42:14;8.50;99.90
46378;DHT22;32083;47.360;9.650;2022-11-18T06:45:00;8.40;99.90
46378;DHT22;32083;47.360;9.650;2022-11-18T06:47:27;8.40;99.90
46378;DHT22;32083;47.360;9.650;2022-11-18T06:49:53;8.50;99.90
46378;DHT22;32083;47.360;9.650;2022-11-18T06:52:19;8.50;99.90
46378;DHT22;32083;47.360;9.650;2022-11-18T06:54:44;8.50;99.90
46378;DHT22;32083;47.360;9.650;2022-11-18T06:57:10;8.50;99.90
46378;DHT22;32083;47.360;9.650;2022-11-18T06:59:36;8.70;99.90
46378;DHT22;32083;47.360;9.650;2022-11-18T07:02:02;8.70;99.90
46378;DHT22;32083;47.360;9.650;2022-11-18T07:04:28;8.80;99.90
46378;DHT22;32083;47.360;9.650;2022-11-18T07:06:54;8.80;99.90
46378;DHT22;32083;47.360;9.650;2022-11-18T07:09:20;8.80;99.90
46378;DHT22;32083;47.360;9.650;2022-11-18T07:11:46;8.80;99.90
46378;DHT22;32083;47.360;9.650;2022-11-18T07:14:12;8.80;99.90
46378;DHT22;32083;47.360;9.650;2022-11-18T07:16:38;8.80;99.90
46378;DHT22;32083;47.360;9.650;2022-11-18T07:19:12;8.80;99.90
46378;DHT22;32083;47.360;9.650;2022-11-18T07:21:38;8.80;99.90
46378;DHT22;32083;47.360;9.650;2022-11-18T07:24:06;8.80;99.90
46378;DHT22;32083;47.360;9.650;2022-11-18T07:26:33;8.60;99.90
46378;DHT22;32083;47.360;9.650;2022-11-18T07:28:59;8.60;99.90
46378;DHT22;32083;47.360;9.650;2022-11-18T07:31:25;8.70;99.90
46378;DHT22;32083;47.360;9.650;2022-11-18T07:33:51;8.60;99.90
46378;DHT22;32083;47.360;9.650;2022-11-18T07:36:22;8.60;99.90
46378;DHT22;32083;47.360;9.650;2022-11-18T07:38:49;8.70;99.90
46378;DHT22;32083;47.360;9.650;2022-11-18T07:41:17;8.60;99.90
46378;DHT22;32083;47.360;9.650;2022-11-18T07:43:44;8.60;99.90
46378;DHT22;32083;47.360;9.650;2022-11-18T07:46:14;8.60;99.90
46378;DHT22;32083;47.360;9.650;2022-11-18T07:48:42;8.60;99.90
46378;DHT22;32083;47.360;9.650;2022-11-18T07:51:08;8.60;99.90
46378;DHT22;32083;47.360;9.650;2022-11-18T07:53:35;8.60;99.90
46378;DHT22;32083;47.360;9.650;2022-11-18T07:56:01;8.60;99.90
46378;DHT22;32083;47.360;9.650;2022-11-18T07:58:27;8.70;99.90
46378;DHT22;32083;47.360;9.650;2022-11-18T08:00:53;8.60;99.90
46378;DHT22;32083;47.360;9.650;2022-11-18T08:03:26;8.60;99.90
46378;DHT22;32083;47.360;9.650;2022-11-18T08:05:59;8.60;99.90
46378;DHT22;32083;47.360;9.650;2022-11-18T08:08:26;8.50;99.90
46378;DHT22;32083;47.360;9.650;2022-11-18T08:10:56;8.60;99.90
46378;DHT22;32083;47.360;9.650;2022-11-18T08:13:23;8.60;99.90
46378;DHT22;32083;47.360;9.650;2022-11-18T08:15:48;8.70;99.90
46378;DHT22;32083;47.360;9.650;2022-11-18T08:18:14;8.70;99.90
46378;DHT22;32083;47.360;9.650;2022-11-18T08:20:40;8.80;99.90
46378;DHT22;32083;47.360;9.650;2022-11-18T08:23:06;8.80;99.90
46378;DHT22;32083;47.360;9.650;2022-11-18T08:25:32;8.80;99.90
46378;DHT22;32083;47.360;9.650;2022-11-18T08:27:58;9.00;99.90
46378;DHT22;32083;47.360;9.650;2022-11-18T08:30:24;9.00;99.90
46378;DHT22;32083;47.360;9.650;2022-11-18T08:32:50;9.00;99.90
46378;DHT22;32083;47.360;9.650;2022-11-18T08:35:16;9.00;99.90
46378;DHT22;32083;47.360;9.650;2022-11-18T08:37:42;9.00;99.90
46378;DHT22;32083;47.360;9.650;2022-11-18T08:40:08;9.00;99.90
46378;DHT22;32083;47.360;9.650;2022-11-18T08:42:34;9.00;99.90
46378;DHT22;32083;47.360;9.650;2022-11-18T08:45:06;9.00;99.90
46378;DHT22;32083;47.360;9.650;2022-11-18T08:47:35;9.00;99.90
46378;DHT22;32083;47.360;9.650;2022-11-18T08:50:03;9.00;99.90
46378;DHT22;32083;47.360;9.650;2022-11-18T08:52:29;9.00;99.90
46378;DHT22;32083;47.360;9.650;2022-11-18T08:54:54;8.90;99.90
46378;DHT22;32083;47.360;9.650;2022-11-18T08:57:20;8.90;99.90
46378;DHT22;32083;47.360;9.650;2022-11-18T08:59:46;8.90;99.90
46378;DHT22;32083;47.360;9.650;2022-11-18T09:02:22;8.90;99.90
46378;DHT22;32083;47.360;9.650;2022-11-18T09:04:51;8.80;99.90
46378;DHT22;32083;47.360;9.650;2022-11-18T09:07:21;8.80;99.90
46378;DHT22;32083;47.360;9.650;2022-11-18T09:09:47;8.90;99.90
46378;DHT22;32083;47.360;9.650;2022-11-18T09:12:13;9.00;99.90
46378;DHT22;32083;47.360;9.650;2022-11-18T09:14:46;9.00;99.90
46378;DHT22;32083;47.360;9.650;2022-11-18T09:17:12;9.00;99.90
46378;DHT22;32083;47.360;9.650;2022-11-18T09:19:39;9.00;99.90
46378;DHT22;32083;47.360;9.650;2022-11-18T09:22:05;9.10;99.90
46378;DHT22;32083;47.360;9.650;2022-11-18T09:24:31;9.20;99.90
46378;DHT22;32083;47.360;9.650;2022-11-18T09:26:57;9.20;99.90
46378;DHT22;32083;47.360;9.650;2022-11-18T09:29:23;9.30;99.90
46378;DHT22;32083;47.360;9.650;2022-11-18T09:31:53;9.30;99.90
46378;DHT22;32083;47.360;9.650;2022-11-18T09:34:19;9.30;99.90
46378;DHT22;32083;47.360;9.650;2022-11-18T09:36:45;9.30;99.90
46378;DHT22;32083;47.360;9.650;2022-11-18T09:39:11;9.30;99.90
46378;DHT22;32083;47.360;9.650;2022-11-18T09:41:47;9.30;99.90
46378;DHT22;32083;47.360;9.650;2022-11-18T09:49:36;9.50;99.90
46378;DHT22;32083;47.360;9.650;2022-11-18T09:52:30;9.40;99.90
46378;DHT22;32083;47.360;9.650;2022-11-18T09:54:57;9.50;99.90
46378;DHT22;32083;47.360;9.650;2022-11-18T09:57:36;9.50;99.90
46378;DHT22;32083;47.360;9.650;2022-11-18T10:00:13;9.60;99.90
46378;DHT22;32083;47.360;9.650;2022-11-18T10:02:59;9.60;99.90
46378;DHT22;32083;47.360;9.650;2022-11-18T10:05:55;9.60;99.90
46378;DHT22;32083;47.360;9.650;2022-11-18T10:13:57;9.60;99.90
46378;DHT22;32083;47.360;9.650;2022-11-18T10:16:38;9.70;99.90
46378;DHT22;32083;47.360;9.650;2022-11-18T10:19:37;9.70;99.90
46378;DHT22;32083;47.360;9.650;2022-11-18T10:22:33;9.70;99.90
46378;DHT22;32083;47.360;9.650;2022-11-18T10:25:02;9.70;99.90
46378;DHT22;32083;47.360;9.650;2022-11-18T10:27:39;9.70;99.90
46378;DHT22;32083;47.360;9.650;2022-11-18T10:30:20;9.70;99.90
46378;DHT22;32083;47.360;9.650;2022-11-18T10:33:01;9.70;99.90
46378;DHT22;32083;47.360;9.650;2022-11-18T10:35:34;9.70;99.90
46378;DHT22;32083;47.360;9.650;2022-11-18T10:38:15;9.70;99.90
46378;DHT22;32083;47.360;9.650;2022-11-18T10:41:02;9.70;99.90
46378;DHT22;32083;47.360;9.650;2022-11-18T10:43:50;9.70;99.90
46378;DHT22;32083;47.360;9.650;2022-11-18T10:51:40;9.70;99.90
46378;DHT22;32083;47.360;9.650;2022-11-18T10:54:12;9.70;99.90
46378;DHT22;32083;47.360;9.650;2022-11-18T10:59:51;9.70;99.90
46378;DHT22;32083;47.360;9.650;2022-11-18T11:02:53;9.70;99.90
46378;DHT22;32083;47.360;9.650;2022-11-18T11:05:21;9.70;99.90
46378;DHT22;32083;47.360;9.650;2022-11-18T11:08:21;9.70;99.90
46378;DHT22;32083;47.360;9.650;2022-11-18T11:10:55;9.60;99.90
46378;DHT22;32083;47.360;9.650;2022-11-18T11:13:22;9.60;99.90
46378;DHT22;32083;47.360;9.650;2022-11-18T11:15:52;9.70;99.90
46378;DHT22;32083;47.360;9.650;2022-11-18T11:18:32;9.60;99.90
46378;DHT22;32083;47.360;9.650;2022-11-18T11:21:18;9.70;99.90
46378;DHT22;32083;47.360;9.650;2022-11-18T11:23:45;9.70;99.90
46378;DHT22;32083;47.360;9.650;2022-11-18T11:31:29;9.70;99.90
46378;DHT22;32083;47.360;9.650;2022-11-18T11:45:04;9.80;99.90
46378;DHT22;32083;47.360;9.650;2022-11-18T11:50:30;9.90;99.90
46378;DHT22;32083;47.360;9.650;2022-11-18T11:56:30;10.00;99.90
46378;DHT22;32083;47.360;9.650;2022-11-18T11:59:06;10.10;99.90
46378;DHT22;32083;47.360;9.650;2022-11-18T12:04:50;10.20;99.90
46378;DHT22;32083;47.360;9.650;2022-11-18T12:07:29;10.20;99.90
46378;DHT22;32083;47.360;9.650;2022-11-18T12:18:32;10.50;99.90
46378;DHT22;32083;47.360;9.650;2022-11-18T12:21:00;10.50;99.90
46378;DHT22;32083;47.360;9.650;2022-11-18T12:23:27;10.50;99.90
46378;DHT22;32083;47.360;9.650;2022-11-18T12:26:11;10.60;99.90
46378;DHT22;32083;47.360;9.650;2022-11-18T12:28:48;10.60;99.90
46378;DHT22;32083;47.360;9.650;2022-11-18T12:33:43;10.60;99.90
46378;DHT22;32083;47.360;9.650;2022-11-18T12:36:27;10.50;99.90
46378;DHT22;32083;47.360;9.650;2022-11-18T12:38:53;10.50;99.90
46378;DHT22;32083;47.360;9.650;2022-11-18T12:44:24;10.60;99.90
46378;DHT22;32083;47.360;9.650;2022-11-18T12:46:55;10.60;99.90
46378;DHT22;32083;47.360;9.650;2022-11-18T12:51:58;10.60;99.90
46378;DHT22;32083;47.360;9.650;2022-11-18T12:54:43;10.60;99.90
46378;DHT22;32083;47.360;9.650;2022-11-18T12:59:42;10.60;99.90
46378;DHT22;32083;47.360;9.650;2022-11-18T13:04:40;10.60;99.90
46378;DHT22;32083;47.360;9.650;2022-11-18T13:07:10;10.50;99.90
46378;DHT22;32083;47.360;9.650;2022-11-18T13:09:55;10.50;99.90
46378;DHT22;32083;47.360;9.650;2022-11-18T13:12:25;10.40;99.90
46378;DHT22;32083;47.360;9.650;2022-11-18T13:14:51;10.30;99.90
46378;DHT22;32083;47.360;9.650;2022-11-18T13:17:40;10.20;99.90
46378;DHT22;32083;47.360;9.650;2022-11-18T13:20:28;10.10;99.90
46378;DHT22;32083;47.360;9.650;2022-11-18T13:26:13;9.90;99.90
46378;DHT22;32083;47.360;9.650;2022-11-18T13:31:19;9.90;99.90
46378;DHT22;32083;47.360;9.650;2022-11-18T13:33:47;9.90;99.90
46378;DHT22;32083;47.360;9.650;2022-11-18T13:36:24;10.00;99.90
46378;DHT22;32083;47.360;9.650;2022-11-18T13:41:21;10.10;99.90
46378;DHT22;32083;47.360;9.650;2022-11-18T13:43:49;10.20;99.90
46378;DHT22;32083;47.360;9.650;2022-11-18T13:46:18;10.20;99.90
46378;DHT22;32083;47.360;9.650;2022-11-18T13:48:50;10.20;99.90
46378;DHT22;32083;47.360;9.650;2022-11-18T13:51:17;10.30;99.90
46378;DHT22;32083;47.360;9.650;2022-11-18T13:53:43;10.40;99.90
46378;DHT22;32083;47.360;9.650;2022-11-18T13:56:19;10.40;99.90
46378;DHT22;32083;47.360;9.650;2022-11-18T13:58:53;10.40;99.90
46378;DHT22;32083;47.360;9.650;2022-11-18T14:01:26;10.40;99.90
46378;DHT22;32083;47.360;9.650;2022-11-18T14:07:40;10.30;99.90
46378;DHT22;32083;47.360;9.650;2022-11-18T14:10:08;10.20;99.90
46378;DHT22;32083;47.360;9.650;2022-11-18T14:12:40;10.10;99.90
46378;DHT22;32083;47.360;9.650;2022-11-18T14:15:33;10.10;99.90
46378;DHT22;32083;47.360;9.650;2022-11-18T14:18:00;10.10;99.90
46378;DHT22;32083;47.360;9.650;2022-11-18T14:20:28;10.10;99.90
46378;DHT22;32083;47.360;9.650;2022-11-18T14:22:59;10.10;99.90
46378;DHT22;32083;47.360;9.650;2022-11-18T14:25:30;10.00;99.90
46378;DHT22;32083;47.360;9.650;2022-11-18T14:33:35;10.00;99.90
46378;DHT22;32083;47.360;9.650;2022-11-18T14:36:17;10.10;99.90
46378;DHT22;32083;47.360;9.650;2022-11-18T14:38:48;10.10;99.90
46378;DHT22;32083;47.360;9.650;2022-11-18T14:41:19;10.10;99.90
46378;DHT22;32083;47.360;9.650;2022-11-18T14:44:04;10.10;99.90
46378;DHT22;32083;47.360;9.650;2022-11-18T14:46:30;10.20;99.90
46378;DHT22;32083;47.360;9.650;2022-11-18T14:48:57;10.10;99.90
46378;DHT22;32083;47.360;9.650;2022-11-18T14:51:23;10.20;99.90
46378;DHT22;32083;47.360;9.650;2022-11-18T14:53:48;10.20;99.90
46378;DHT22;32083;47.360;9.650;2022-11-18T14:56:23;10.20;99.90
46378;DHT22;32083;47.360;9.650;2022-11-18T14:58:50;10.20;99.90
46378;DHT22;32083;47.360;9.650;2022-11-18T15:01:16;10.20;99.90
46378;DHT22;32083;47.360;9.650;2022-11-18T15:03:42;10.10;99.90
46378;DHT22;32083;47.360;9.650;2022-11-18T15:06:15;10.10;99.90
46378;DHT22;32083;47.360;9.650;2022-11-18T15:08:46;10.10;99.90
46378;DHT22;32083;47.360;9.650;2022-11-18T15:11:15;10.10;99.90
46378;DHT22;32083;47.360;9.650;2022-11-18T15:13:41;10.00;99.90
46378;DHT22;32083;47.360;9.650;2022-11-18T15:16:19;9.90;99.90
46378;DHT22;32083;47.360;9.650;2022-11-18T15:18:48;9.80;99.90
46378;DHT22;32083;47.360;9.650;2022-11-18T15:21:14;9.80;99.90
46378;DHT22;32083;47.360;9.650;2022-11-18T15:23:41;9.70;99.90
46378;DHT22;32083;47.360;9.650;2022-11-18T15:26:20;9.70;99.90
46378;DHT22;32083;47.360;9.650;2022-11-18T15:28:47;9.60;99.90
46378;DHT22;32083;47.360;9.650;2022-11-18T15:31:14;9.50;99.90
46378;DHT22;32083;47.360;9.650;2022-11-18T15:33:40;9.40;99.90
46378;DHT22;32083;47.360;9.650;2022-11-18T15:36:17;9.30;99.90
46378;DHT22;32083;47.360;9.650;2022-11-18T15:38:43;9.20;99.90
46378;DHT22;32083;47.360;9.650;2022-11-18T15:41:15;9.10;99.90
46378;DHT22;32083;47.360;9.650;2022-11-18T15:43:42;9.10;99.90
46378;DHT22;32083;47.360;9.650;2022-11-18T15:46:08;9.00;99.90
46378;DHT22;32083;47.360;9.650;2022-11-18T15:48:34;9.00;99.90
46378;DHT22;32083;47.360;9.650;2022-11-18T15:51:00;9.00;99.90
46378;DHT22;32083;47.360;9.650;2022-11-18T15:53:26;9.10;99.90
46378;DHT22;32083;47.360;9.650;2022-11-18T15:55:51;9.10;99.90
46378;DHT22;32083;47.360;9.650;2022-11-18T15:58:17;9.10;99.90
46378;DHT22;32083;47.360;9.650;2022-11-18T16:00:43;9.10;99.90
46378;DHT22;32083;47.360;9.650;2022-11-18T16:03:09;9.10;99.90
46378;DHT22;32083;47.360;9.650;2022-11-18T16:05:34;9.00;99.90
46378;DHT22;32083;47.360;9.650;2022-11-18T16:08:00;9.00;99.90
46378;DHT22;32083;47.360;9.650;2022-11-18T16:10:25;9.00;99.90
46378;DHT22;32083;47.360;9.650;2022-11-18T16:13:10;9.00;99.90
46378;DHT22;32083;47.360;9.650;2022-11-18T16:15:36;9.00;99.90
46378;DHT22;32083;47.360;9.650;2022-11-18T16:18:08;9.00;99.90
46378;DHT22;32083;47.360;9.650;2022-11-18T16:20:34;9.00;99.90
46378;DHT22;32083;47.360;9.650;2022-11-18T16:23:00;9.00;99.90
46378;DHT22;32083;47.360;9.650;2022-11-18T16:25:26;8.90;99.90
46378;DHT22;32083;47.360;9.650;2022-11-18T16:27:53;8.90;99.90
46378;DHT22;32083;47.360;9.650;2022-11-18T16:30:19;8.90;99.90
46378;DHT22;32083;47.360;9.650;2022-11-18T16:33:04;8.90;99.90
46378;DHT22;32083;47.360;9.650;2022-11-18T16:35:30;8.90;99.90
46378;DHT22;32083;47.360;9.650;2022-11-18T16:37:56;8.90;99.90
46378;DHT22;32083;47.360;9.650;2022-11-18T16:40:22;8.90;99.90
46378;DHT22;32083;47.360;9.650;2022-11-18T16:42:51;8.80;99.90
46378;DHT22;32083;47.360;9.650;2022-11-18T16:45:18;8.80;99.90
46378;DHT22;32083;47.360;9.650;2022-11-18T16:47:44;8.80;99.90
46378;DHT22;32083;47.360;9.650;2022-11-18T16:50:11;8.80;99.90
46378;DHT22;32083;47.360;9.650;2022-11-18T16:52:37;8.80;99.90
46378;DHT22;32083;47.360;9.650;2022-11-18T16:55:04;8.80;99.90
46378;DHT22;32083;47.360;9.650;2022-11-18T16:57:30;8.80;99.90
46378;DHT22;32083;47.360;9.650;2022-11-18T16:59:56;8.80;99.90
46378;DHT22;32083;47.360;9.650;2022-11-18T17:02:22;8.80;99.90
46378;DHT22;32083;47.360;9.650;2022-11-18T17:04:48;8.70;99.90
46378;DHT22;32083;47.360;9.650;2022-11-18T17:07:14;8.80;99.90
46378;DHT22;32083;47.360;9.650;2022-11-18T17:09:42;8.80;99.90
46378;DHT22;32083;47.360;9.650;2022-11-18T17:12:08;8.80;99.90
46378;DHT22;32083;47.360;9.650;2022-11-18T17:14:34;8.90;99.90
46378;DHT22;32083;47.360;9.650;2022-11-18T17:17:03;8.90;99.90
46378;DHT22;32083;47.360;9.650;2022-11-18T17:19:29;8.90;99.90
46378;DHT22;32083;47.360;9.650;2022-11-18T17:21:55;9.00;99.90
46378;DHT22;32083;47.360;9.650;2022-11-18T17:24:22;9.00;99.90
46378;DHT22;32083;47.360;9.650;2022-11-18T17:26:49;9.00;99.90
46378;DHT22;32083;47.360;9.650;2022-11-18T17:29:15;9.00;99.90
46378;DHT22;32083;47.360;9.650;2022-11-18T17:31:41;8.90;99.90
46378;DHT22;32083;47.360;9.650;2022-11-18T17:34:12;9.00;99.90
46378;DHT22;32083;47.360;9.650;2022-11-18T17:36:39;8.90;99.90
46378;DHT22;32083;47.360;9.650;2022-11-18T17:39:06;8.90;99.90
46378;DHT22;32083;47.360;9.650;2022-11-18T17:41:31;8.90;99.90
46378;DHT22;32083;47.360;9.650;2022-11-18T17:44:16;8.90;99.90
46378;DHT22;32083;47.360;9.650;2022-11-18T17:46:42;8.90;99.90
46378;DHT22;32083;47.360;9.650;2022-11-18T17:49:14;8.90;99.90
46378;DHT22;32083;47.360;9.650;2022-11-18T17:51:41;8.90;99.90
46378;DHT22;32083;47.360;9.650;2022-11-18T17:54:08;8.90;99.90
46378;DHT22;32083;47.360;9.650;2022-11-18T17:56:34;8.90;99.90
46378;DHT22;32083;47.360;9.650;2022-11-18T17:59:00;8.90;99.90
46378;DHT22;32083;47.360;9.650;2022-11-18T18:01:26;8.90;99.90
46378;DHT22;32083;47.360;9.650;2022-11-18T18:03:52;8.90;99.90
46378;DHT22;32083;47.360;9.650;2022-11-18T18:06:18;8.90;99.90
46378;DHT22;32083;47.360;9.650;2022-11-18T18:08:46;8.90;99.90
46378;DHT22;32083;47.360;9.650;2022-11-18T18:11:17;8.90;99.90
46378;DHT22;32083;47.360;9.650;2022-11-18T18:13:43;8.90;99.90
46378;DHT22;32083;47.360;9.650;2022-11-18T18:16:30;8.80;99.90
46378;DHT22;32083;47.360;9.650;2022-11-18T18:19:00;8.80;99.90
46378;DHT22;32083;47.360;9.650;2022-11-18T18:21:27;8.80;99.90
46378;DHT22;32083;47.360;9.650;2022-11-18T18:23:53;8.80;99.90
46378;DHT22;32083;47.360;9.650;2022-11-18T18:26:19;8.80;99.90
46378;DHT22;32083;47.360;9.650;2022-11-18T18:28:45;8.80;99.90
46378;DHT22;32083;47.360;9.650;2022-11-18T18:31:13;8.80;99.90
46378;DHT22;32083;47.360;9.650;2022-11-18T18:33:39;8.80;99.90
46378;DHT22;32083;47.360;9.650;2022-11-18T18:36:09;8.70;99.90
46378;DHT22;32083;47.360;9.650;2022-11-18T18:38:36;8.70;99.90
46378;DHT22;32083;47.360;9.650;2022-11-18T18:41:05;8.70;99.90
46378;DHT22;32083;47.360;9.650;2022-11-18T18:43:32;8.70;99.90
46378;DHT22;32083;47.360;9.650;2022-11-18T18:46:02;8.70;99.90
46378;DHT22;32083;47.360;9.650;2022-11-18T18:48:47;8.80;99.90
46378;DHT22;32083;47.360;9.650;2022-11-18T18:51:13;8.70;99.90
46378;DHT22;32083;47.360;9.650;2022-11-18T18:53:39;8.60;99.90
46378;DHT22;32083;47.360;9.650;2022-11-18T18:56:06;8.60;99.90
46378;DHT22;32083;47.360;9.650;2022-11-18T18:58:33;8.60;99.90
46378;DHT22;32083;47.360;9.650;2022-11-18T19:01:07;8.60;99.90
46378;DHT22;32083;47.360;9.650;2022-11-18T19:03:34;8.50;99.90
46378;DHT22;32083;47.360;9.650;2022-11-18T19:06:16;8.60;99.90
46378;DHT22;32083;47.360;9.650;2022-11-18T19:08:44;8.60;99.90
46378;DHT22;32083;47.360;9.650;2022-11-18T19:11:10;8.50;99.90
46378;DHT22;32083;47.360;9.650;2022-11-18T19:14:05;8.60;99.90
46378;DHT22;32083;47.360;9.650;2022-11-18T19:16:32;8.50;99.90
46378;DHT22;32083;47.360;9.650;2022-11-18T19:18:58;8.50;99.90
46378;DHT22;32083;47.360;9.650;2022-11-18T19:21:25;8.40;99.90
46378;DHT22;32083;47.360;9.650;2022-11-18T19:23:51;8.40;99.90
46378;DHT22;32083;47.360;9.650;2022-11-18T19:26:16;8.40;99.90
46378;DHT22;32083;47.360;9.650;2022-11-18T19:28:43;8.40;99.90
46378;DHT22;32083;47.360;9.650;2022-11-18T19:31:10;8.40;99.90
46378;DHT22;32083;47.360;9.650;2022-11-18T19:33:36;8.40;99.90
46378;DHT22;32083;47.360;9.650;2022-11-18T19:36:03;8.40;99.90
46378;DHT22;32083;47.360;9.650;2022-11-18T19:38:30;8.40;99.90
46378;DHT22;32083;47.360;9.650;2022-11-18T19:41:04;8.40;99.90
46378;DHT22;32083;47.360;9.650;2022-11-18T19:43:30;8.50;99.90
46378;DHT22;32083;47.360;9.650;2022-11-18T19:45:56;8.50;99.90
46378;DHT22;32083;47.360;9.650;2022-11-18T19:48:23;8.40;99.90
46378;DHT22;32083;47.360;9.650;2022-11-18T19:51:02;8.40;99.90
46378;DHT22;32083;47.360;9.650;2022-11-18T19:53:28;8.40;99.90
46378;DHT22;32083;47.360;9.650;2022-11-18T19:55:58;8.40;99.90
46378;DHT22;32083;47.360;9.650;2022-11-18T19:58:25;8.40;99.90
46378;DHT22;32083;47.360;9.650;2022-11-18T20:00:52;8.30;99.90
46378;DHT22;32083;47.360;9.650;2022-11-18T20:03:18;8.30;99.90
46378;DHT22;32083;47.360;9.650;2022-11-18T20:05:44;8.30;99.90
46378;DHT22;32083;47.360;9.650;2022-11-18T20:08:20;8.30;99.90
46378;DHT22;32083;47.360;9.650;2022-11-18T20:10:46;8.30;99.90
46378;DHT22;32083;47.360;9.650;2022-11-18T20:13:13;8.30;99.90
46378;DHT22;32083;47.360;9.650;2022-11-18T20:15:40;8.30;99.90
46378;DHT22;32083;47.360;9.650;2022-11-18T20:18:06;8.30;99.90
46378;DHT22;32083;47.360;9.650;2022-11-18T20:20:33;8.30;99.90
46378;DHT22;32083;47.360;9.650;2022-11-18T20:22:59;8.30;99.90
46378;DHT22;32083;47.360;9.650;2022-11-18T20:25:26;8.30;99.90
46378;DHT22;32083;47.360;9.650;2022-11-18T20:27:52;8.30;99.90
46378;DHT22;32083;47.360;9.650;2022-11-18T20:30:19;8.30;99.90
46378;DHT22;32083;47.360;9.650;2022-11-18T20:32:45;8.30;99.90
46378;DHT22;32083;47.360;9.650;2022-11-18T20:35:12;8.30;99.90
46378;DHT22;32083;47.360;9.650;2022-11-18T20:37:39;8.20;99.90
46378;DHT22;32083;47.360;9.650;2022-11-18T20:40:07;8.20;99.90
46378;DHT22;32083;47.360;9.650;2022-11-18T20:42:33;8.10;99.90
46378;DHT22;32083;47.360;9.650;2022-11-18T20:45:18;8.10;99.90
46378;DHT22;32083;47.360;9.650;2022-11-18T20:47:44;8.00;99.90
46378;DHT22;32083;47.360;9.650;2022-11-18T20:50:10;8.00;99.90
46378;DHT22;32083;47.360;9.650;2022-11-18T20:52:38;7.90;99.90
46378;DHT22;32083;47.360;9.650;2022-11-18T20:55:04;7.90;99.90
46378;DHT22;32083;47.360;9.650;2022-11-18T20:57:30;7.90;99.90
46378;DHT22;32083;47.360;9.650;2022-11-18T20:59:57;7.90;99.90
46378;DHT22;32083;47.360;9.650;2022-11-18T21:02:23;7.90;99.90
46378;DHT22;32083;47.360;9.650;2022-11-18T21:04:49;7.80;99.90
46378;DHT22;32083;47.360;9.650;2022-11-18T21:07:15;7.70;99.90
46378;DHT22;32083;47.360;9.650;2022-11-18T21:09:41;7.60;99.90
46378;DHT22;32083;47.360;9.650;2022-11-18T21:12:07;7.60;99.90
46378;DHT22;32083;47.360;9.650;2022-11-18T21:14:33;7.60;99.90
46378;DHT22;32083;47.360;9.650;2022-11-18T21:17:00;7.60;99.90
46378;DHT22;32083;47.360;9.650;2022-11-18T21:19:26;7.60;99.90
46378;DHT22;32083;47.360;9.650;2022-11-18T21:21:54;7.50;99.90
46378;DHT22;32083;47.360;9.650;2022-11-18T21:26:48;7.50;99.90
46378;DHT22;32083;47.360;9.650;2022-11-18T21:29:15;7.40;99.90
46378;DHT22;32083;47.360;9.650;2022-11-18T21:31:42;7.40;99.90
46378;DHT22;32083;47.360;9.650;2022-11-18T21:34:09;7.50;99.90
46378;DHT22;32083;47.360;9.650;2022-11-18T21:36:36;7.50;99.90
46378;DHT22;32083;47.360;9.650;2022-11-18T21:39:03;7.40;99.90
46378;DHT22;32083;47.360;9.650;2022-11-18T21:41:29;7.50;99.90
46378;DHT22;32083;47.360;9.650;2022-11-18T21:43:56;7.50;99.90
46378;DHT22;32083;47.360;9.650;2022-11-18T21:46:23;7.60;99.90
46378;DHT22;32083;47.360;9.650;2022-11-18T21:48:49;7.50;99.90
46378;DHT22;32083;47.360;9.650;2022-11-18T21:51:18;7.60;99.90
46378;DHT22;32083;47.360;9.650;2022-11-18T21:53:45;7.70;99.90
46378;DHT22;32083;47.360;9.650;2022-11-18T21:56:16;7.70;99.90
46378;DHT22;32083;47.360;9.650;2022-11-18T21:58:45;7.70;99.90
46378;DHT22;32083;47.360;9.650;2022-11-18T22:01:17;7.70;99.90
46378;DHT22;32083;47.360;9.650;2022-11-18T22:03:48;7.70;99.90
46378;DHT22;32083;47.360;9.650;2022-11-18T22:06:16;7.70;99.90
46378;DHT22;32083;47.360;9.650;2022-11-18T22:08:42;7.70;99.90
46378;DHT22;32083;47.360;9.650;2022-11-18T22:11:10;7.70;99.90
46378;DHT22;32083;47.360;9.650;2022-11-18T22:13:37;7.70;99.90
46378;DHT22;32083;47.360;9.650;2022-11-18T22:16:04;7.70;99.90
46378;DHT22;32083;47.360;9.650;2022-11-18T22:18:32;7.70;99.90
46378;DHT22;32083;47.360;9.650;2022-11-18T22:21:04;7.70;99.90
46378;DHT22;32083;47.360;9.650;2022-11-18T22:23:31;7.70;99.90
46378;DHT22;32083;47.360;9.650;2022-11-18T22:25:59;7.70;99.90